Terminal Aerodrome Forecast
Issued by NWS Blacksburg, VA

Home | Current Version | Previous Version | Text Only | Print | Product List | Glossary On
Versions: 1 2 3 4 5 6 7 8 9 10 11 12 13 14 15 16 17 18 19 20 21 22 23 24 25
000
FTUS41 KRNK 231720
TAFROA
TAF
KROA 231720Z 2318/2418 31012G22KT P6SM SCT040
     FM240100 31006KT P6SM SKC
     FM241000 31003KT P6SM SCT250
     FM241400 29006KT P6SM BKN200=

USA.gov is the U.S. government's official web portal to all federal, state and local government web resources and services.